KFWA

Fort Wayne International Airport

Fort Wayne, Indiana, USA
METAR KFWA 151554Z 05012KT 10SM FEW075 BKN170 04/M01 A3011 RMK AO2 SLP202 T00391011 $
Observed Flight Rules
Dec-15 @ 15:54 UTC (11 minutes ago) Visual Flight Rules
Wind Visibility Clouds
50° at 12 knots 10 miles
  • Few at 7,500' AGL
  • Broken at 17,000' AGL
Temperatures Readings
Current 4°C / 39°F
Dewpoint -1°C / 30°F
Humidity 70%
Altimeter 30.11" Hg
Pressure 1020.2 hPa
Elevation 248
METAR KFWA 151554Z 05012KT 10SM FEW075 BKN170 04/M01 A3011 RMK AO2 SLP202 T00391011 $
Observed Flight Rules
Dec-15 @ 15:54 UTC
(11 minutes ago)
VFR
Wind Visibility
50° at 12 knots 10 miles
Clouds
  • Few at 7,500' AGL
  • Broken at 17,000' AGL
Temperature Dewpoint
4°C / 39°F -1°C / 30°F
Humidity Altimeter Pressure
70% 30.11" Hg 1020.2 hPa